Time;durP1;ratioP1;P1;durP2;ratioP2;P2;SDS_P1;SDS_P2;PMS_P1;PMS_P2;Temp;Humidity;BMP_temperature;BMP_pressure;BME280_temperature;BME280_humidity;BME280_pressure;Samples;Min_cycle;Max_cycle;Signal;HPM_P1;HPM_P2
2022/05/06 00:00:20;;;;;;;11.37;7.43;;;;;;;9.87;88.56;101782.56;5111822;28;20187;-68
2022/05/06 00:02:47;;;;;;;7.40;7.23;;;;;;;9.82;88.08;101775.72;5112998;28;20234;-68
2022/05/06 00:05:13;;;;;;;7.43;7.23;;;;;;;9.65;88.21;101776.94;5112973;28;20553;-68
2022/05/06 00:07:40;;;;;;;7.03;6.90;;;;;;;9.53;88.47;101777.16;5112437;28;20337;-68
2022/05/06 00:10:07;;;;;;;7.10;6.90;;;;;;;9.49;88.78;101777.25;5113565;28;20596;-68
2022/05/06 00:12:34;;;;;;;7.50;7.17;;;;;;;9.46;89.38;101778.19;5111410;28;20579;-68
2022/05/06 00:15:00;;;;;;;7.27;6.97;;;;;;;9.50;90.13;101786.81;5111095;28;20195;-68
2022/05/06 00:17:27;;;;;;;8.27;7.57;;;;;;;9.47;90.33;101790.34;5112740;28;20302;-68
2022/05/06 00:19:53;;;;;;;8.07;7.67;;;;;;;9.47;90.59;101786.88;5112619;28;20180;-68
2022/05/06 00:22:21;;;;;;;8.77;8.20;;;;;;;9.45;90.85;101788.66;5116601;28;20191;-68
2022/05/06 00:24:47;;;;;;;7.90;7.50;;;;;;;9.45;91.23;101791.28;5116676;28;20673;-68
2022/05/06 00:27:14;;;;;;;8.60;8.20;;;;;;;9.46;91.60;101785.16;5114816;28;20207;-68
2022/05/06 00:29:41;;;;;;;10.27;9.73;;;;;;;9.46;91.78;101791.25;5116682;28;20601;-68
2022/05/06 00:32:08;;;;;;;10.37;9.63;;;;;;;9.48;92.00;101788.59;5116649;28;20650;-68
2022/05/06 00:34:35;;;;;;;9.30;8.67;;;;;;;9.49;92.30;101785.94;5097245;28;20194;-68
2022/05/06 00:37:02;;;;;;;9.73;8.70;;;;;;;9.48;92.63;101784.22;5115992;28;20264;-68
2022/05/06 00:39:28;;;;;;;8.73;8.53;;;;;;;9.49;92.93;101785.94;5097141;28;20212;-68
2022/05/06 00:41:56;;;;;;;9.47;8.53;;;;;;;9.50;92.96;101784.19;5116583;28;20191;-68
2022/05/06 00:44:24;;;;;;;8.93;8.30;;;;;;;9.51;93.06;101780.72;5113951;28;20580;-68
2022/05/06 00:46:52;;;;;;;9.43;8.50;;;;;;;9.52;92.60;101782.44;5116452;28;20186;-68
2022/05/06 00:49:19;;;;;;;9.37;8.87;;;;;;;9.52;92.65;101792.88;5097913;28;20627;-68
2022/05/06 00:51:46;;;;;;;9.90;9.00;;;;;;;9.48;92.53;101786.84;5115418;28;20183;-68
2022/05/06 00:54:13;;;;;;;9.30;8.80;;;;;;;9.45;92.44;101779.06;5097628;28;20192;-68
2022/05/06 00:56:40;;;;;;;10.20;9.50;;;;;;;9.40;92.25;101780.91;5116018;28;20199;-68
2022/05/06 00:59:07;;;;;;;8.90;8.40;;;;;;;9.32;92.42;101788.91;5096472;28;20569;-68
2022/05/06 01:01:35;;;;;;;8.50;8.10;;;;;;;9.28;92.76;101794.19;5109859;28;20185;-68
2022/05/06 01:04:04;;;;;;;9.90;9.40;;;;;;;9.22;92.86;101789.97;5096689;28;20298;-68
2022/05/06 01:06:31;;;;;;;9.83;9.13;;;;;;;9.14;93.37;101791.84;5114724;28;20236;-68
2022/05/06 01:08:57;;;;;;;9.63;9.00;;;;;;;9.09;93.89;101794.56;5097604;28;20687;-68
2022/05/06 01:11:26;;;;;;;9.30;8.83;;;;;;;9.11;94.24;101791.91;5097458;28;20241;-68
2022/05/06 01:13:55;;;;;;;9.30;8.77;;;;;;;9.11;94.50;101791.91;5115645;28;20264;-68
2022/05/06 01:16:35;;;;;;;8.37;8.17;;;;;;;9.03;94.98;101788.56;5096695;28;20199;-68
2022/05/06 01:19:05;;;;;;;9.20;8.70;;;;;;;8.97;95.82;101797.38;5094918;28;20215;-68
2022/05/06 01:21:35;;;;;;;9.10;8.23;;;;;;;8.96;95.95;101798.25;5106819;28;20241;-68
2022/05/06 01:24:02;;;;;;;9.63;9.03;;;;;;;8.86;95.90;101801.94;5116554;28;20547;-68
2022/05/06 01:27:03;;;;;;;9.33;8.83;;;;;;;8.77;96.19;101795.09;5096567;28;20204;-69
2022/05/06 01:29:33;;;;;;;9.47;8.27;;;;;;;8.70;96.25;101801.28;5112975;28;20701;-68
2022/05/06 01:32:01;;;;;;;10.07;9.17;;;;;;;8.63;96.94;101798.81;5114855;28;20242;-68
2022/05/06 01:34:32;;;;;;;9.83;9.10;;;;;;;8.66;96.74;101804.00;5113435;28;20186;-68
2022/05/06 01:37:02;;;;;;;10.80;9.90;;;;;;;8.71;97.19;101797.78;5115256;28;20197;-68
2022/05/06 01:39:33;;;;;;;9.73;9.07;;;;;;;8.71;97.57;101799.53;5097665;28;20211;-68
2022/05/06 01:42:06;;;;;;;10.13;9.57;;;;;;;8.71;96.99;101796.94;5096251;28;20222;-68
2022/05/06 01:44:59;;;;;;;9.37;8.87;;;;;;;8.52;97.26;101806.81;5107199;28;20265;-68
2022/05/06 01:47:28;;;;;;;8.97;8.40;;;;;;;8.46;97.49;101810.38;5096321;28;20187;-68
2022/05/06 01:50:00;;;;;;;9.73;9.20;;;;;;;8.45;97.66;101808.66;5096870;28;20686;-68
2022/05/06 01:52:31;;;;;;;9.97;9.17;;;;;;;8.43;98.02;101807.81;5096827;28;20193;-68
2022/05/06 01:54:57;;;;;;;10.10;9.17;;;;;;;8.39;98.44;101810.50;5095747;28;20186;-68
2022/05/06 01:57:26;;;;;;;9.07;8.57;;;;;;;8.46;98.36;101814.75;5095823;28;20186;-68
2022/05/06 01:59:52;;;;;;;8.60;8.10;;;;;;;8.48;98.45;101806.00;5096299;28;20194;-69
2022/05/06 02:02:21;;;;;;;9.80;9.20;;;;;;;8.52;98.66;101812.03;5113122;28;20197;-68
2022/05/06 02:07:39;;;;;;;9.73;9.23;;;;;;;8.51;98.71;101808.56;5096393;28;20224;-68
2022/05/06 02:10:06;;;;;;;8.97;8.47;;;;;;;8.48;98.70;101808.59;5115403;28;20182;-68
2022/05/06 02:12:37;;;;;;;8.87;8.47;;;;;;;8.45;99.06;101803.44;5096402;28;20219;-67
2022/05/06 02:15:16;;;;;;;9.47;9.00;;;;;;;8.38;99.30;101809.63;5096220;28;20188;-68
2022/05/06 02:18:03;;;;;;;9.10;8.60;;;;;;;8.39;99.48;101803.53;5072211;28;20229;-68
2022/05/06 02:20:51;;;;;;;9.17;8.60;;;;;;;8.44;99.54;101795.63;5111916;28;20637;-67
2022/05/06 02:23:47;;;;;;;9.43;9.03;;;;;;;8.42;99.83;101803.47;5101575;28;20224;-68
2022/05/06 02:26:28;;;;;;;9.80;9.20;;;;;;;8.37;99.47;101807.06;5113646;28;20189;-68
2022/05/06 02:28:59;;;;;;;9.93;9.43;;;;;;;8.27;99.19;101806.28;5096025;28;20694;-67
2022/05/06 02:34:16;;;;;;;10.17;9.73;;;;;;;8.23;99.17;101808.06;5096198;28;20220;-68
2022/05/06 02:36:48;;;;;;;9.30;8.67;;;;;;;8.09;99.09;101812.63;5095189;28;20184;-68
2022/05/06 02:39:32;;;;;;;10.00;9.47;;;;;;;8.00;99.38;101810.09;5095586;28;20295;-68
2022/05/06 02:42:09;;;;;;;10.23;9.30;;;;;;;7.98;99.90;101810.13;5096385;28;20203;-68
2022/05/06 02:44:36;;;;;;;10.37;9.67;;;;;;;8.00;100.00;101820.53;5094451;28;20213;-68
2022/05/06 02:47:02;;;;;;;10.47;9.63;;;;;;;7.95;100.00;101810.19;5114065;28;20192;-68
2022/05/06 02:49:30;;;;;;;9.70;9.10;;;;;;;8.03;100.00;101817.06;5095796;28;20213;-68
2022/05/06 02:51:57;;;;;;;10.43;9.57;;;;;;;8.01;100.00;101809.25;5096398;28;20287;-68
2022/05/06 02:54:24;;;;;;;10.70;9.93;;;;;;;8.00;100.00;101807.50;5112639;28;20200;-68
2022/05/06 02:56:56;;;;;;;11.47;9.53;;;;;;;7.98;100.00;101804.91;5094277;28;20220;-68
2022/05/06 02:59:23;;;;;;;10.27;9.47;;;;;;;7.99;100.00;101800.56;5095568;28;20299;-68
2022/05/06 03:01:51;;;;;;;9.87;9.40;;;;;;;8.01;100.00;101804.03;5095570;28;20262;-68
2022/05/06 03:04:18;;;;;;;9.70;8.97;;;;;;;7.96;100.00;101801.47;5113046;28;20250;-68
2022/05/06 03:06:45;;;;;;;9.73;9.13;;;;;;;7.91;100.00;101792.84;5093167;28;20282;-68
2022/05/06 03:09:24;;;;;;;9.67;9.27;;;;;;;7.92;100.00;101801.53;5095064;28;20219;-68
2022/05/06 03:11:52;;;;;;;10.50;9.53;;;;;;;7.89;100.00;101792.00;5094093;28;20216;-68
2022/05/06 03:14:21;;;;;;;13.47;10.53;;;;;;;7.87;100.00;101790.31;5095956;28;20275;-68
2022/05/06 03:17:14;;;;;;;11.63;10.63;;;;;;;7.83;100.00;101794.69;5101116;28;20200;-68
2022/05/06 03:19:40;;;;;;;10.47;9.73;;;;;;;7.71;100.00;101800.03;5113293;28;20193;-68
2022/05/06 03:22:07;;;;;;;11.10;10.17;;;;;;;7.66;100.00;101791.44;5094693;28;20199;-68
2022/05/06 03:24:34;;;;;;;11.03;10.03;;;;;;;7.59;100.00;101795.88;5094339;28;20567;-68
2022/05/06 03:27:01;;;;;;;10.10;9.53;;;;;;;7.56;100.00;101795.03;5111944;28;20185;-68
2022/05/06 03:29:27;;;;;;;10.83;9.77;;;;;;;7.55;100.00;101801.13;5112105;28;20201;-68
2022/05/06 03:31:57;;;;;;;11.63;10.17;;;;;;;7.56;100.00;101803.69;5094732;28;20278;-68
2022/05/06 03:34:24;;;;;;;10.70;9.67;;;;;;;7.57;100.00;101797.63;5093996;28;20650;-68
2022/05/06 03:36:51;;;;;;;10.77;9.90;;;;;;;7.59;100.00;101800.22;5093743;28;20226;-68
2022/05/06 03:39:17;;;;;;;10.47;9.87;;;;;;;7.58;100.00;101795.88;5093648;28;20702;-68
2022/05/06 03:41:58;;;;;;;10.13;9.47;;;;;;;7.53;100.00;101795.94;5082650;28;20201;-68
2022/05/06 03:44:26;;;;;;;10.13;9.63;;;;;;;7.55;100.00;101793.28;5093774;28;20205;-68
2022/05/06 03:46:53;;;;;;;10.37;9.33;;;;;;;7.54;100.00;101796.78;5095009;28;20223;-68
2022/05/06 03:49:27;;;;;;;10.77;9.93;;;;;;;7.52;100.00;101799.41;5075760;28;20213;-68
2022/05/06 03:51:55;;;;;;;10.77;10.03;;;;;;;7.49;100.00;101798.56;5082354;28;20621;-68
2022/05/06 03:54:22;;;;;;;11.27;10.63;;;;;;;7.48;100.00;101799.47;5113057;28;20193;-68
2022/05/06 03:56:50;;;;;;;10.73;9.87;;;;;;;7.47;100.00;101801.19;5098075;28;20189;-68
2022/05/06 03:59:18;;;;;;;11.20;10.50;;;;;;;7.48;100.00;101799.47;5098151;28;20300;-68
2022/05/06 04:01:50;;;;;;;9.87;9.13;;;;;;;7.50;100.00;101792.47;5099077;28;20292;-68
2022/05/06 04:04:26;;;;;;;9.83;9.40;;;;;;;7.47;100.00;101803.81;5098206;28;20201;-68
2022/05/06 04:06:55;;;;;;;9.93;9.43;;;;;;;7.45;100.00;101801.22;5098697;28;20189;-68
2022/05/06 04:09:22;;;;;;;13.13;10.30;;;;;;;7.44;100.00;101802.09;5098718;28;20213;-68
2022/05/06 04:11:49;;;;;;;11.30;10.20;;;;;;;7.41;100.00;101806.47;5097896;28;20189;-68
2022/05/06 04:14:16;;;;;;;15.63;10.37;;;;;;;7.38;100.00;101815.19;5099341;28;20191;-68
2022/05/06 04:16:45;;;;;;;10.37;9.77;;;;;;;7.40;100.00;101821.25;5098855;28;20232;-68
2022/05/06 04:19:24;;;;;;;10.87;10.07;;;;;;;7.26;100.00;101830.09;5097305;28;20224;-68
2022/05/06 04:24:49;;;;;;;12.60;11.30;;;;;;;7.12;100.00;101818.06;5096329;28;20249;-68
2022/05/06 04:27:17;;;;;;;10.10;9.60;;;;;;;7.11;100.00;101818.06;5095657;28;20200;-68
2022/05/06 04:29:44;;;;;;;11.30;10.30;;;;;;;7.13;100.00;101822.38;5097709;28;20189;-68
2022/05/06 04:32:11;;;;;;;11.77;10.87;;;;;;;7.24;100.00;101819.69;5096658;28;20249;-68
2022/05/06 04:34:38;;;;;;;13.17;10.33;;;;;;;7.32;100.00;101825.69;5097097;28;20192;-68
2022/05/06 04:37:06;;;;;;;11.30;10.40;;;;;;;7.38;100.00;101825.63;5098007;28;20185;-68
2022/05/06 04:39:36;;;;;;;10.83;10.17;;;;;;;7.41;100.00;101822.09;5099809;28;20192;-68
2022/05/06 04:42:03;;;;;;;10.43;9.77;;;;;;;7.37;100.00;101823.03;5117053;28;20193;-68
2022/05/06 04:44:34;;;;;;;12.17;11.20;;;;;;;7.37;100.00;101833.47;5085493;28;20244;-68
2022/05/06 04:47:00;;;;;;;11.33;10.40;;;;;;;7.35;100.00;101832.59;5095734;28;20605;-68
2022/05/06 04:49:28;;;;;;;10.83;10.13;;;;;;;7.39;100.00;101829.94;5098093;28;20602;-68
2022/05/06 04:51:56;;;;;;;10.77;10.13;;;;;;;7.49;100.00;101835.91;5097807;28;20196;-68
2022/05/06 04:54:23;;;;;;;13.27;11.07;;;;;;;7.55;100.00;101843.69;5096230;28;20192;-68
2022/05/06 04:56:52;;;;;;;12.20;11.20;;;;;;;7.61;100.00;101840.16;5096832;28;20704;-68
2022/05/06 04:59:25;;;;;;;13.13;12.00;;;;;;;7.68;100.00;101836.59;5096744;28;20704;-68
2022/05/06 05:01:53;;;;;;;12.47;11.17;;;;;;;7.67;100.00;101846.16;5115791;28;20521;-68
2022/05/06 05:04:20;;;;;;;11.87;11.10;;;;;;;7.72;100.00;101849.59;5097319;28;20195;-68
2022/05/06 05:06:48;;;;;;;12.67;11.57;;;;;;;7.78;100.00;101850.38;5097226;28;20570;-68
2022/05/06 05:09:18;;;;;;;16.03;11.60;;;;;;;7.86;100.00;101852.03;5099479;28;20280;-68
2022/05/06 05:11:47;;;;;;;13.53;12.30;;;;;;;7.86;100.00;101857.25;5098539;28;20193;-68
2022/05/06 05:14:24;;;;;;;14.07;12.63;;;;;;;7.91;100.00;101859.78;5093610;28;20197;-68
2022/05/06 05:16:50;;;;;;;17.57;11.50;;;;;;;7.98;100.00;101849.25;5113138;28;20565;-68
2022/05/06 05:19:19;;;;;;;12.03;11.20;;;;;;;8.07;100.00;101860.44;5097972;28;20239;-68
2022/05/06 05:21:51;;;;;;;14.60;13.00;;;;;;;8.17;100.00;101856.88;5098958;28;20596;-68
2022/05/06 05:24:18;;;;;;;14.27;12.63;;;;;;;8.25;100.00;101862.84;5097879;28;20213;-68
2022/05/06 05:26:45;;;;;;;14.97;13.53;;;;;;;8.35;100.00;101864.47;5097871;28;20193;-68
2022/05/06 05:29:13;;;;;;;15.17;13.50;;;;;;;8.39;100.00;101860.94;5097678;28;20702;-68
2022/05/06 05:31:40;;;;;;;16.17;13.27;;;;;;;8.49;100.00;101859.91;5098549;28;20259;-68
2022/05/06 05:34:06;;;;;;;14.50;13.10;;;;;;;8.60;100.00;101856.31;5097975;28;20185;-68
2022/05/06 05:36:33;;;;;;;13.73;12.63;;;;;;;8.69;100.00;101861.38;5097613;28;20185;-68
2022/05/06 05:39:00;;;;;;;18.30;14.00;;;;;;;8.79;100.00;101858.63;5097771;28;20221;-68
2022/05/06 05:41:27;;;;;;;14.43;13.17;;;;;;;8.88;100.00;101865.44;5097585;28;20276;-68
2022/05/06 05:49:32;;;;;;;18.80;15.93;;;;;;;9.23;100.00;101861.38;5097958;28;20223;-68
2022/05/06 05:51:58;;;;;;;22.87;16.87;;;;;;;9.31;100.00;101868.19;5097662;28;20247;-68
2022/05/06 05:54:26;;;;;;;23.17;16.17;;;;;;;9.42;100.00;101869.75;5097717;28;20247;-68
2022/05/06 05:56:54;;;;;;;20.60;17.10;;;;;;;9.53;100.00;101860.81;5097271;28;20200;-68
2022/05/06 05:59:20;;;;;;;20.83;17.57;;;;;;;9.64;100.00;101868.44;5115520;28;20201;-68
2022/05/06 06:01:47;;;;;;;20.77;18.20;;;;;;;9.78;100.00;101869.06;5097178;28;20606;-68
2022/05/06 06:04:15;;;;;;;20.33;17.33;;;;;;;9.90;100.00;101874.06;5097253;28;20197;-68
2022/05/06 06:06:44;;;;;;;29.23;20.17;;;;;;;10.05;100.00;101866.78;5097068;28;20236;-68
2022/05/06 06:09:12;;;;;;;27.77;20.17;;;;;;;10.14;100.00;101863.97;5096966;28;20222;-68
2022/05/06 06:11:40;;;;;;;23.37;19.37;;;;;;;10.29;100.00;101863.69;5097072;28;20213;-68
2022/05/06 06:14:09;;;;;;;21.60;18.80;;;;;;;10.36;100.00;101867.91;5097051;28;20283;-68
2022/05/06 06:16:35;;;;;;;25.40;19.23;;;;;;;10.52;100.00;101872.81;5096998;28;20195;-68
2022/05/06 06:19:02;;;;;;;27.50;20.03;;;;;;;10.57;100.00;101868.31;5096536;28;20237;-68
2022/05/06 06:21:36;;;;;;;25.27;19.20;;;;;;;10.70;100.00;101869.75;5097087;28;20188;-68
2022/05/06 06:24:03;;;;;;;20.07;17.93;;;;;;;10.80;100.00;101867.78;5115031;28;20541;-68
2022/05/06 06:26:30;;;;;;;22.57;19.63;;;;;;;10.96;99.90;101869.13;5096522;28;20690;-68
2022/05/06 06:29:02;;;;;;;26.83;20.77;;;;;;;11.10;99.78;101877.53;5096622;28;20224;-68
2022/05/06 06:31:31;;;;;;;27.53;21.27;;;;;;;11.27;98.66;101880.56;5096750;28;20203;-68
2022/05/06 06:33:59;;;;;;;23.30;19.23;;;;;;;11.35;96.78;101879.50;5096635;28;20199;-68
2022/05/06 06:36:30;;;;;;;34.93;22.17;;;;;;;11.49;95.82;101880.88;5096580;28;20200;-68
2022/05/06 06:38:57;;;;;;;23.97;19.73;;;;;;;11.57;95.47;101880.66;5096521;28;20217;-68
2022/05/06 06:41:24;;;;;;;26.40;19.37;;;;;;;11.71;96.70;101877.66;5096805;28;20734;-68
2022/05/06 06:43:50;;;;;;;33.43;21.50;;;;;;;11.87;96.51;101881.66;5114760;28;20242;-69
2022/05/06 06:46:28;;;;;;;24.13;20.53;;;;;;;12.09;95.80;101881.91;5096378;28;20232;-69
2022/05/06 06:49:20;;;;;;;27.87;22.40;;;;;;;12.29;94.85;101884.81;5096349;28;20221;-68
2022/05/06 06:52:04;;;;;;;38.07;21.97;;;;;;;12.44;93.48;101894.00;5096447;28;20602;-68
2022/05/06 06:54:30;;;;;;;24.80;21.10;;;;;;;12.57;92.32;101886.56;5114536;28;20196;-68
2022/05/06 06:56:57;;;;;;;31.30;22.83;;;;;;;12.76;91.59;101894.75;5114719;28;20200;-68
2022/05/06 06:59:23;;;;;;;38.20;21.00;;;;;;;12.82;89.40;101884.91;5114350;28;20220;-68
2022/05/06 07:01:50;;;;;;;26.20;20.37;;;;;;;12.86;89.17;101890.94;5114375;28;20193;-68
2022/05/06 07:04:17;;;;;;;33.63;20.23;;;;;;;12.99;90.15;101889.63;5114318;28;20677;-68
2022/05/06 07:12:13;;;;;;;24.60;19.80;;;;;;;13.36;88.45;101891.06;5114491;28;20180;-68
2022/05/06 07:14:40;;;;;;;38.23;20.57;;;;;;;13.37;86.90;101888.41;5095891;28;20195;-68
2022/05/06 07:17:07;;;;;;;32.23;19.67;;;;;;;13.41;87.08;101890.00;5114066;28;20185;-68
2022/05/06 07:19:33;;;;;;;32.07;19.20;;;;;;;13.51;87.09;101887.06;5114061;28;20205;-68
2022/05/06 07:22:00;;;;;;;22.33;17.20;;;;;;;13.63;86.98;101897.13;5114034;28;20197;-68
2022/05/06 07:24:27;;;;;;;28.97;20.03;;;;;;;13.80;87.44;101899.19;5114256;28;20553;-68
2022/05/06 07:26:54;;;;;;;26.67;20.67;;;;;;;13.85;86.41;101892.81;5114214;28;20570;-68
2022/05/06 07:29:21;;;;;;;24.70;18.90;;;;;;;13.90;85.86;101898.78;5113505;28;20208;-68
2022/05/06 07:31:47;;;;;;;29.60;18.93;;;;;;;14.00;86.05;101894.94;5113592;28;20188;-68
2022/05/06 07:34:15;;;;;;;27.73;19.67;;;;;;;14.19;86.28;101899.50;5095651;28;20223;-68
2022/05/06 07:36:42;;;;;;;26.87;21.23;;;;;;;14.43;83.66;101898.59;5113873;28;20602;-68
2022/05/06 07:39:13;;;;;;;25.57;19.93;;;;;;;14.35;83.04;101899.78;5113671;28;20212;-69
2022/05/06 07:41:40;;;;;;;37.33;22.53;;;;;;;14.46;83.44;101893.22;5113900;28;20169;-69
2022/05/06 07:44:07;;;;;;;31.90;23.13;;;;;;;14.57;82.32;101901.59;5114305;28;20185;-68
2022/05/06 07:46:34;;;;;;;34.00;20.90;;;;;;;14.55;81.97;101906.03;5113627;28;20236;-68
2022/05/06 07:49:02;;;;;;;31.17;21.70;;;;;;;14.69;81.92;101904.66;5113597;28;20687;-68
2022/05/06 07:51:29;;;;;;;34.33;21.80;;;;;;;14.66;81.19;101904.78;5113719;28;20189;-68
2022/05/06 07:53:56;;;;;;;30.77;20.87;;;;;;;14.70;80.92;101903.72;5113630;28;20196;-68
2022/05/06 07:56:24;;;;;;;27.47;21.03;;;;;;;14.84;80.14;101909.31;5113919;28;20669;-68
2022/05/06 07:58:53;;;;;;;30.80;21.93;;;;;;;14.91;80.97;101899.38;5113658;28;20213;-68
2022/05/06 08:04:32;;;;;;;31.07;21.17;;;;;;;14.92;80.24;101901.94;5114219;28;20238;-68
2022/05/06 08:06:52;;;;;;;26.37;20.17;;;;;;;15.27;81.35;101897.84;5113429;28;20212;-69
2022/05/06 08:09:20;;;;;;;25.70;21.47;;;;;;;15.50;78.82;101896.91;5113467;28;20547;-69
2022/05/06 08:11:47;;;;;;;47.40;20.80;;;;;;;15.62;75.92;101900.81;5114081;28;20272;-69
2022/05/06 08:14:16;;;;;;;41.30;19.50;;;;;;;15.60;75.86;101894.72;5113589;28;20586;-69
2022/05/06 08:16:44;;;;;;;39.00;20.60;;;;;;;15.67;74.51;101890.91;5113483;28;20663;-69
2022/05/06 08:19:10;;;;;;;27.53;19.80;;;;;;;15.68;74.57;101892.63;5113345;28;20197;-69
2022/05/06 08:21:37;;;;;;;36.63;19.97;;;;;;;15.76;74.39;101890.50;5113424;28;20189;-69
2022/05/06 08:24:04;;;;;;;30.60;21.30;;;;;;;15.71;73.79;101895.13;5113319;28;20193;-69
2022/05/06 08:26:30;;;;;;;36.70;19.60;;;;;;;15.84;73.93;101892.81;5113818;28;20250;-69
2022/05/06 08:28:57;;;;;;;26.20;18.87;;;;;;;15.80;74.61;101894.75;5113798;28;20326;-69
2022/05/06 08:31:23;;;;;;;20.50;17.33;;;;;;;15.93;74.92;101887.09;5113315;28;20215;-69
2022/05/06 08:33:50;;;;;;;19.67;16.33;;;;;;;16.11;71.24;101896.00;5113917;28;20630;-69
2022/05/06 08:36:17;;;;;;;19.10;15.70;;;;;;;16.32;69.90;101891.50;5113521;28;20192;-69
2022/05/06 08:38:44;;;;;;;21.77;14.57;;;;;;;16.28;70.55;101900.50;5113127;28;20750;-69
2022/05/06 08:41:12;;;;;;;26.40;15.77;;;;;;;16.26;70.72;101894.44;5114126;28;20708;-69
2022/05/06 08:43:38;;;;;;;16.27;14.77;;;;;;;16.37;69.52;101897.44;5098755;28;20197;-69
2022/05/06 08:51:39;;;;;;;25.73;13.73;;;;;;;16.78;69.87;101893.69;5117064;28;20180;-69
2022/05/06 08:54:06;;;;;;;19.37;15.53;;;;;;;16.74;67.55;101896.59;5116919;28;20575;-69
2022/05/06 08:56:32;;;;;;;17.13;14.67;;;;;;;16.74;68.36;101891.31;5117148;28;20193;-69
2022/05/06 08:58:59;;;;;;;17.23;15.40;;;;;;;16.87;67.57;101891.56;5117604;28;20265;-69
2022/05/06 09:01:25;;;;;;;15.03;13.93;;;;;;;16.90;68.16;101896.69;5116803;28;20204;-69
2022/05/06 09:03:55;;;;;;;14.10;12.87;;;;;;;16.91;66.02;101890.47;5117255;28;20197;-70
2022/05/06 09:06:27;;;;;;;14.57;13.37;;;;;;;16.91;65.41;101899.25;5116855;28;20209;-69
2022/05/06 09:08:55;;;;;;;15.37;13.43;;;;;;;16.94;65.56;101896.47;5116670;28;20212;-69
2022/05/06 09:14:14;;;;;;;15.73;14.10;;;;;;;17.05;65.05;101886.22;5116586;28;20180;-69
2022/05/06 09:16:41;;;;;;;20.17;15.40;;;;;;;17.05;66.19;101891.50;5116418;28;20177;-68
2022/05/06 09:19:13;;;;;;;17.30;15.20;;;;;;;17.20;66.20;101887.22;5116411;28;20205;-68
2022/05/06 09:21:41;;;;;;;23.17;17.00;;;;;;;17.36;66.00;101889.09;5116688;28;20226;-69
2022/05/06 09:24:19;;;;;;;20.03;15.53;;;;;;;17.33;64.92;101896.28;5116809;28;20190;-69
2022/05/06 09:27:04;;;;;;;20.63;16.40;;;;;;;17.30;64.96;101885.84;5116522;28;20214;-69
2022/05/06 09:29:37;;;;;;;18.23;16.40;;;;;;;17.40;66.33;101886.22;5116172;28;20250;-68
2022/05/06 09:32:13;;;;;;;22.07;18.57;;;;;;;17.55;64.63;101884.59;5116498;28;20174;-69
2022/05/06 09:34:41;;;;;;;21.00;17.40;;;;;;;17.64;66.69;101886.75;5116420;28;20185;-69
2022/05/06 09:37:07;;;;;;;28.77;17.13;;;;;;;17.74;66.55;101882.72;5116162;28;20234;-68
2022/05/06 09:39:38;;;;;;;17.90;16.03;;;;;;;17.86;66.84;101883.88;5116595;28;20209;-68
2022/05/06 09:42:06;;;;;;;21.37;16.90;;;;;;;17.79;64.73;101887.78;5116487;28;20200;-68
2022/05/06 09:44:33;;;;;;;19.43;16.27;;;;;;;17.77;64.63;101885.19;5116147;28;20215;-68
2022/05/06 09:47:15;;;;;;;19.67;15.93;;;;;;;17.83;63.54;101884.88;5115776;28;20212;-68
2022/05/06 09:49:42;;;;;;;25.00;17.63;;;;;;;17.88;64.37;101880.19;5116146;28;20184;-69
2022/05/06 09:52:14;;;;;;;17.13;15.20;;;;;;;17.84;64.62;101870.69;5116336;28;20273;-69
2022/05/06 09:54:43;;;;;;;21.43;16.00;;;;;;;17.70;64.83;101883.78;5112034;28;20562;-69
2022/05/06 09:57:11;;;;;;;21.93;17.27;;;;;;;17.59;65.06;101876.41;5110822;28;20527;-69
2022/05/06 09:59:38;;;;;;;16.10;14.63;;;;;;;17.51;65.76;101881.25;5109878;28;20190;-68
2022/05/06 10:02:05;;;;;;;16.87;15.33;;;;;;;17.51;65.68;101877.75;5110225;28;20197;-69
2022/05/06 10:04:37;;;;;;;16.30;15.00;;;;;;;17.48;66.84;101878.75;5114552;28;20231;-69
2022/05/06 10:07:11;;;;;;;14.37;13.00;;;;;;;17.40;66.65;101873.00;5114004;28;20248;-68
2022/05/06 10:09:44;;;;;;;16.27;13.00;;;;;;;17.54;64.60;101866.97;5115753;28;20590;-68
2022/05/06 10:12:14;;;;;;;15.67;14.13;;;;;;;17.72;64.22;101871.38;5114264;28;20219;-69
2022/05/06 10:14:44;;;;;;;16.40;14.70;;;;;;;17.94;62.66;101875.53;5112373;28;20196;-70
2022/05/06 10:17:10;;;;;;;16.27;14.57;;;;;;;17.91;63.36;101873.03;5112008;28;20200;-69
2022/05/06 10:19:38;;;;;;;14.87;13.70;;;;;;;17.93;62.73;101872.03;5092666;28;20193;-69
2022/05/06 10:22:05;;;;;;;17.50;15.27;;;;;;;18.13;63.92;101869.13;5089361;28;20227;-69
2022/05/06 10:24:49;;;;;;;16.07;14.53;;;;;;;18.25;64.27;101874.72;5113068;28;20596;-68
2022/05/06 10:33:18;;;;;;;17.87;16.10;;;;;;;18.73;63.08;101859.69;5099468;28;20258;-69
2022/05/06 10:35:46;;;;;;;20.47;15.83;;;;;;;18.40;63.04;101856.16;5112430;28;20272;-69
2022/05/06 10:38:24;;;;;;;19.53;15.23;;;;;;;18.22;64.83;101858.97;5109119;28;20223;-69
2022/05/06 10:41:02;;;;;;;18.30;16.40;;;;;;;17.99;65.63;101857.56;5113076;28;20212;-69
2022/05/06 10:43:46;;;;;;;18.60;16.70;;;;;;;17.95;65.69;101861.31;5114587;28;20215;-68
2022/05/06 10:46:40;;;;;;;18.77;15.13;;;;;;;17.92;63.98;101856.19;5114942;28;20557;-69
2022/05/06 10:49:34;;;;;;;17.43;15.03;;;;;;;17.81;63.11;101854.13;5110976;28;20710;-69
2022/05/06 10:52:15;;;;;;;16.50;14.03;;;;;;;17.75;61.83;101852.66;5114693;28;20189;-69
2022/05/06 10:54:44;;;;;;;15.07;13.53;;;;;;;17.73;62.61;101849.22;5114850;28;20181;-69
2022/05/06 10:57:11;;;;;;;13.53;11.97;;;;;;;17.86;62.69;101847.66;5114498;28;20184;-69
2022/05/06 10:59:47;;;;;;;14.23;13.00;;;;;;;17.86;62.19;101846.78;5114753;28;20224;-69
2022/05/06 11:02:14;;;;;;;13.97;13.07;;;;;;;17.98;62.56;101855.84;5114792;28;20215;-69
2022/05/06 11:04:41;;;;;;;16.53;13.67;;;;;;;18.04;63.97;101860.81;5113502;28;20188;-68
2022/05/06 11:07:14;;;;;;;15.23;13.83;;;;;;;18.37;62.99;101853.69;5114592;28;20204;-68
2022/05/06 11:09:40;;;;;;;20.93;15.90;;;;;;;18.51;64.70;101846.75;5114258;28;20227;-68
2022/05/06 11:12:07;;;;;;;18.33;16.20;;;;;;;18.42;63.42;101841.00;5114310;28;20187;-68
2022/05/06 11:14:34;;;;;;;17.57;15.83;;;;;;;18.36;62.80;101841.38;5114190;28;20185;-68
2022/05/06 11:17:15;;;;;;;21.40;15.30;;;;;;;18.54;63.54;101838.59;5114769;28;20169;-68
2022/05/06 11:19:42;;;;;;;15.30;14.00;;;;;;;18.59;61.04;101841.84;5114171;28;20260;-68
2022/05/06 11:22:09;;;;;;;20.17;14.23;;;;;;;18.54;60.13;101839.44;5112759;28;20219;-70
2022/05/06 11:24:36;;;;;;;14.57;13.17;;;;;;;18.65;60.51;101837.06;5112451;28;20220;-69
2022/05/06 11:27:18;;;;;;;17.77;16.17;;;;;;;18.82;62.55;101832.59;5112372;28;20242;-68
2022/05/06 11:29:49;;;;;;;20.37;18.23;;;;;;;18.93;62.21;101835.47;5113960;28;20238;-69
2022/05/06 11:32:17;;;;;;;17.67;15.90;;;;;;;18.93;61.18;101839.00;5111819;28;20281;-70
2022/05/06 11:35:09;;;;;;;17.30;15.57;;;;;;;18.96;62.24;101830.00;5111170;28;20556;-69
2022/05/06 11:37:41;;;;;;;17.03;15.33;;;;;;;18.88;62.74;101833.09;5112327;28;20217;-69
2022/05/06 11:40:32;;;;;;;17.03;14.57;;;;;;;19.05;62.61;101825.94;5110695;28;20200;-69
2022/05/06 11:43:00;;;;;;;29.10;17.13;;;;;;;18.93;62.50;101824.84;5093596;28;20243;-69
2022/05/06 11:48:14;;;;;;;16.47;14.83;;;;;;;19.02;61.80;101827.00;5112736;28;20578;-68
2022/05/06 11:50:42;;;;;;;20.10;16.77;;;;;;;19.07;59.87;101826.69;5111222;28;20196;-69
2022/05/06 11:53:10;;;;;;;16.30;14.80;;;;;;;19.11;60.25;101828.25;5112102;28;20193;-69
2022/05/06 11:55:39;;;;;;;21.17;16.87;;;;;;;19.19;62.04;101818.00;5110134;28;20211;-70
2022/05/06 11:58:07;;;;;;;24.60;17.43;;;;;;;19.03;60.86;101817.22;5107434;28;20250;-70
2022/05/06 12:00:34;;;;;;;19.00;16.83;;;;;;;18.84;60.26;101815.63;5110501;28;20186;-70
2022/05/06 12:03:04;;;;;;;21.67;17.33;;;;;;;18.63;60.45;101817.69;5108859;28;20221;-69
2022/05/06 12:05:32;;;;;;;19.63;17.73;;;;;;;18.60;60.33;101809.06;5112337;28;20185;-69